Nearby METAR Reports

 

KTCM - Tacoma,Washington,
Updated: 12/31/1969 4:00pm
NOT Current
unable to load KTCM data RC=
unable to load KTCM data RC=
 
KSEA - Seattle,Washington,
Updated: 01/19/2019 10:53am
Mostly cloudy
Mostly cloudy
 Wind from S
Wind: S 12 mph , 19 km/h
Temperature: 48°F , 9°C
Wind Chill: 43°F , 6°C
Dew Point: 41°F , 5°C
Humidity: 76%
Barometer: 30.14 inHg , 1020.7 hPa
Clouds: Mostly cloudy
Visibility: 10 miles , 16 km
Cloud details: Partly cloudy 3700 ft
Mostly cloudy 5000 ft
Mostly cloudy 6000 ft
2019/01/19 18:53 KSEA 191853Z 19010KT 10SM SCT037 BKN050 BKN060 09/05 A3014 RMK AO2 SLP215 T00940050
 
KOLM - Olympia,Washington,
Updated: 01/19/2019 10:54am
Few Clouds
Few Clouds
 Wind from S
Wind: S 5 mph , 7 km/h
Temperature: 46°F , 8°C
Wind Chill: 44°F , 7°C
Dew Point: 45°F , 7°C
Humidity: 93%
Barometer: 30.17 inHg , 1021.7 hPa
Clouds: Few Clouds
Visibility: 10 miles , 16 km
Cloud details: Few Clouds 2600 ft
Few Clouds 8000 ft
2019/01/19 18:54 KOLM 191854Z 18004KT 10SM FEW026 FEW080 08/07 A3017 RMK AO2 RAE19 SLP217 P0002 T00830067
KHQM - Hoquiam,Washington,
Updated: 01/19/2019 10:53am
Mist, Mostly cloudy
Mist, Mostly cloudy
 Wind from SSE
Wind: SSE 7 mph , 11 km/h
Temperature: 50°F , 10°C
Wind Chill: 47°F , 8°C
Dew Point: 48°F , 9°C
Humidity: 94%
Barometer: 30.15 inHg , 1021 hPa
Summary: Mist
Clouds: Mostly cloudy
Visibility: 5 miles , 8 km
Cloud details: Few Clouds 2500 ft
Mostly cloudy 3400 ft
Mostly cloudy 4800 ft
2019/01/19 18:53 KHQM 191853Z AUTO 16006KT 5SM BR FEW025 BKN034 BKN048 10/09 A3015 RMK AO2 RAB06E19 SLP212 P0000 T01000089
 
KGEG - Spokane,Washington,
Updated: 01/19/2019 10:53am
Mist, Overcast
Mist, Overcast
 Wind from SW
Wind: SW 14 mph , 22 km/h
Temperature: 39°F , 4°C
Wind Chill: 31°F , -1°C
Dew Point: 37°F , 3°C
Humidity: 93%
Barometer: 30.06 inHg , 1017.9 hPa
Summary: Mist
Clouds: Overcast
Visibility: 1/4 mile , 0.4 km
Cloud details: Partly cloudy 200 ft
Overcast 400 ft
2019/01/19 18:53 KGEG 191853Z 22012KT 1/4SM R21/P6000FT BR SCT002 OVC004 04/03 A3006 RMK AO2 SFC VIS 1 1/2 SLP194 VIS SE-SW 3/4 T00440033
KBLI - Bellingham,Washington,
Updated: 01/19/2019 10:53am
Mostly cloudy
Mostly cloudy
 Wind from SSE
Wind: SSE 10 mph , 17 km/h
Temperature: 50°F , 10°C
Wind Chill: 46°F , 8°C
Dew Point: 39°F , 4°C
Humidity: 67%
Barometer: 30.09 inHg , 1019 hPa
Clouds: Mostly cloudy
Visibility: 10 miles , 16 km
Cloud details: Partly cloudy 3000 ft
Mostly cloudy 5000 ft
2019/01/19 18:53 KBLI 191853Z 16009KT 10SM SCT030 BKN050 10/04 A3009 RMK AO2 SLP196 T01000044